sensor_id;sensor_type;location;lat;lon;timestamp;pressure;altitude;pressure_sealevel;temperature;humidity
60489;BME280;46331;49.252;8.904;2024-01-11T00:00:12;100841.63;;;-0.79;55.35
60489;BME280;46331;49.252;8.904;2024-01-11T00:00:52;100846.97;;;-0.80;55.40
60489;BME280;46331;49.252;8.904;2024-01-11T00:01:33;100835.47;;;-0.78;55.57
60489;BME280;46331;49.252;8.904;2024-01-11T00:02:13;100840.69;;;-0.78;55.50
60489;BME280;46331;49.252;8.904;2024-01-11T00:02:54;100843.97;;;-0.76;55.31
60489;BME280;46331;49.252;8.904;2024-01-11T00:03:34;100847.53;;;-0.77;55.24
60489;BME280;46331;49.252;8.904;2024-01-11T00:04:15;100843.97;;;-0.76;55.30
60489;BME280;46331;49.252;8.904;2024-01-11T00:04:55;100843.69;;;-0.73;55.18
60489;BME280;46331;49.252;8.904;2024-01-11T00:05:36;100848.75;;;-0.71;55.38
60489;BME280;46331;49.252;8.904;2024-01-11T00:06:17;100837.41;;;-0.70;55.63
60489;BME280;46331;49.252;8.904;2024-01-11T00:06:57;100838.91;;;-0.67;55.65
60489;BME280;46331;49.252;8.904;2024-01-11T00:07:37;100837.13;;;-0.67;55.53
60489;BME280;46331;49.252;8.904;2024-01-11T00:08:18;100839.59;;;-0.65;55.85
60489;BME280;46331;49.252;8.904;2024-01-11T00:08:59;100838.06;;;-0.68;56.05
60489;BME280;46331;49.252;8.904;2024-01-11T00:09:41;100838.91;;;-0.48;56.12
60489;BME280;46331;49.252;8.904;2024-01-11T00:10:22;100830.56;;;-0.61;55.91
60489;BME280;46331;49.252;8.904;2024-01-11T00:11:03;100830.41;;;-0.69;56.09
60489;BME280;46331;49.252;8.904;2024-01-11T00:11:43;100836.59;;;-0.70;55.91
60489;BME280;46331;49.252;8.904;2024-01-11T00:12:24;100833.84;;;-0.69;55.77
60489;BME280;46331;49.252;8.904;2024-01-11T00:13:04;100831.09;;;-0.67;56.05
60489;BME280;46331;49.252;8.904;2024-01-11T00:13:45;100830.97;;;-0.66;55.99
60489;BME280;46331;49.252;8.904;2024-01-11T00:14:26;100833.72;;;-0.67;55.84
60489;BME280;46331;49.252;8.904;2024-01-11T00:15:09;100841.66;;;-0.30;56.01
60489;BME280;46331;49.252;8.904;2024-01-11T00:15:50;100833.44;;;-0.64;55.65
60489;BME280;46331;49.252;8.904;2024-01-11T00:16:30;100834.38;;;-0.65;55.71
60489;BME280;46331;49.252;8.904;2024-01-11T00:17:11;100834.38;;;-0.65;55.92
60489;BME280;46331;49.252;8.904;2024-01-11T00:17:51;100837.00;;;-0.65;55.86
60489;BME280;46331;49.252;8.904;2024-01-11T00:18:32;100839.59;;;-0.65;56.20
60489;BME280;46331;49.252;8.904;2024-01-11T00:19:12;100844.53;;;-0.62;55.92
60489;BME280;46331;49.252;8.904;2024-01-11T00:19:53;100842.88;;;-0.63;56.22
60489;BME280;46331;49.252;8.904;2024-01-11T00:20:33;100839.47;;;-0.64;55.87
60489;BME280;46331;49.252;8.904;2024-01-11T00:21:15;100832.72;;;-0.66;55.94
60489;BME280;46331;49.252;8.904;2024-01-11T00:21:55;100829.97;;;-0.65;55.99
60489;BME280;46331;49.252;8.904;2024-01-11T00:22:36;100829.84;;;-0.63;55.65
60489;BME280;46331;49.252;8.904;2024-01-11T00:23:16;100824.22;;;-0.68;56.08
60489;BME280;46331;49.252;8.904;2024-01-11T00:23:57;100833.28;;;-0.73;55.96
60489;BME280;46331;49.252;8.904;2024-01-11T00:24:37;100830.53;;;-0.71;56.34
60489;BME280;46331;49.252;8.904;2024-01-11T00:25:18;100838.22;;;-0.69;56.23
60489;BME280;46331;49.252;8.904;2024-01-11T00:25:58;100829.72;;;-0.72;56.12
60489;BME280;46331;49.252;8.904;2024-01-11T00:26:39;100832.47;;;-0.73;56.17
60489;BME280;46331;49.252;8.904;2024-01-11T00:27:20;100836.00;;;-0.74;56.21
60489;BME280;46331;49.252;8.904;2024-01-11T00:28:01;100832.31;;;-0.62;56.57
60489;BME280;46331;49.252;8.904;2024-01-11T00:28:42;100834.09;;;-0.82;55.91
60489;BME280;46331;49.252;8.904;2024-01-11T00:29:22;100835.75;;;-0.81;56.05
60489;BME280;46331;49.252;8.904;2024-01-11T00:30:03;100843.56;;;-0.71;56.22
60489;BME280;46331;49.252;8.904;2024-01-11T00:30:45;100826.41;;;-0.83;56.17
60489;BME280;46331;49.252;8.904;2024-01-11T00:31:25;100834.34;;;-0.85;56.03
60489;BME280;46331;49.252;8.904;2024-01-11T00:32:06;100836.56;;;-0.80;55.94
60489;BME280;46331;49.252;8.904;2024-01-11T00:32:46;100837.53;;;-0.81;55.95
60489;BME280;46331;49.252;8.904;2024-01-11T00:33:27;100835.75;;;-0.81;55.67
60489;BME280;46331;49.252;8.904;2024-01-11T00:34:07;100836.00;;;-0.84;55.92
60489;BME280;46331;49.252;8.904;2024-01-11T00:34:48;100840.94;;;-0.81;55.65
60489;BME280;46331;49.252;8.904;2024-01-11T00:35:28;100833.41;;;-0.84;55.50
60489;BME280;46331;49.252;8.904;2024-01-11T00:36:09;100829.69;;;-0.91;55.38
60489;BME280;46331;49.252;8.904;2024-01-11T00:36:49;100832.72;;;-0.86;55.66
60489;BME280;46331;49.252;8.904;2024-01-11T00:37:30;100835.34;;;-0.86;55.60
60489;BME280;46331;49.252;8.904;2024-01-11T00:38:11;100840.53;;;-0.86;55.94
60489;BME280;46331;49.252;8.904;2024-01-11T00:38:51;100841.50;;;-0.87;56.03
60489;BME280;46331;49.252;8.904;2024-01-11T00:39:32;100838.88;;;-0.87;56.30
60489;BME280;46331;49.252;8.904;2024-01-11T00:40:12;100839.69;;;-0.86;56.15
60489;BME280;46331;49.252;8.904;2024-01-11T00:40:53;100842.16;;;-0.85;56.41
60489;BME280;46331;49.252;8.904;2024-01-11T00:41:33;100834.34;;;-0.85;56.54
60489;BME280;46331;49.252;8.904;2024-01-11T00:42:14;100834.94;;;-0.81;56.82
60489;BME280;46331;49.252;8.904;2024-01-11T00:42:54;100840.81;;;-0.79;56.59
60489;BME280;46331;49.252;8.904;2024-01-11T00:43:35;100834.78;;;-0.80;56.52
60489;BME280;46331;49.252;8.904;2024-01-11T00:44:15;100831.75;;;-0.85;56.17
60489;BME280;46331;49.252;8.904;2024-01-11T00:44:56;100830.00;;;-0.84;56.70
60489;BME280;46331;49.252;8.904;2024-01-11T00:45:37;100831.34;;;-0.80;56.94
60489;BME280;46331;49.252;8.904;2024-01-11T00:46:18;100834.78;;;-0.80;56.56
60489;BME280;46331;49.252;8.904;2024-01-11T00:46:58;100837.53;;;-0.81;56.89
60489;BME280;46331;49.252;8.904;2024-01-11T00:47:39;100833.28;;;-0.82;57.02
60489;BME280;46331;49.252;8.904;2024-01-11T00:48:19;100844.50;;;-0.82;57.05
60489;BME280;46331;49.252;8.904;2024-01-11T00:49:00;100839.56;;;-0.85;57.05
60489;BME280;46331;49.252;8.904;2024-01-11T00:49:40;100837.53;;;-0.81;56.89
60489;BME280;46331;49.252;8.904;2024-01-11T00:50:21;100841.09;;;-0.82;56.96
60489;BME280;46331;49.252;8.904;2024-01-11T00:51:04;100834.50;;;-0.57;56.96
60489;BME280;46331;49.252;8.904;2024-01-11T00:51:44;100836.41;;;-0.79;57.32
60489;BME280;46331;49.252;8.904;2024-01-11T00:52:25;100833.28;;;-0.82;56.98
60489;BME280;46331;49.252;8.904;2024-01-11T00:53:05;100835.75;;;-0.81;57.18
60489;BME280;46331;49.252;8.904;2024-01-11T00:53:46;100839.03;;;-0.79;57.07
60489;BME280;46331;49.252;8.904;2024-01-11T00:54:26;100840.94;;;-0.81;57.65
60489;BME280;46331;49.252;8.904;2024-01-11T00:55:07;100835.75;;;-0.81;56.98
60489;BME280;46331;49.252;8.904;2024-01-11T00:55:48;100835.06;;;-0.83;57.27
60489;BME280;46331;49.252;8.904;2024-01-11T00:56:28;100837.41;;;-0.80;57.52
60489;BME280;46331;49.252;8.904;2024-01-11T00:57:09;100840.81;;;-0.79;57.37
60489;BME280;46331;49.252;8.904;2024-01-11T00:57:49;100840.81;;;-0.79;57.35
60489;BME280;46331;49.252;8.904;2024-01-11T00:58:30;100840.28;;;-0.83;57.06
60489;BME280;46331;49.252;8.904;2024-01-11T00:59:11;100844.50;;;-0.82;57.11
60489;BME280;46331;49.252;8.904;2024-01-11T00:59:51;100836.69;;;-0.82;57.11
60489;BME280;46331;49.252;8.904;2024-01-11T01:00:32;100835.75;;;-0.81;57.27
60489;BME280;46331;49.252;8.904;2024-01-11T01:01:12;100840.94;;;-0.81;57.20
60489;BME280;46331;49.252;8.904;2024-01-11T01:01:53;100842.75;;;-0.81;57.05
60489;BME280;46331;49.252;8.904;2024-01-11T01:02:34;100843.81;;;-0.84;57.08
60489;BME280;46331;49.252;8.904;2024-01-11T01:03:14;100835.19;;;-0.84;56.90
60489;BME280;46331;49.252;8.904;2024-01-11T01:03:56;100838.63;;;-0.84;56.92
60489;BME280;46331;49.252;8.904;2024-01-11T01:04:37;100845.34;;;-0.72;57.27
60489;BME280;46331;49.252;8.904;2024-01-11T01:05:19;100846.44;;;-0.84;56.76
60489;BME280;46331;49.252;8.904;2024-01-11T01:05:59;100849.84;;;-0.83;56.85
60489;BME280;46331;49.252;8.904;2024-01-11T01:06:42;100842.34;;;-0.77;56.92
60489;BME280;46331;49.252;8.904;2024-01-11T01:07:23;100846.56;;;-0.85;56.72
60489;BME280;46331;49.252;8.904;2024-01-11T01:08:03;100850.81;;;-0.84;56.96
60489;BME280;46331;49.252;8.904;2024-01-11T01:08:45;100849.16;;;-0.85;56.96
60489;BME280;46331;49.252;8.904;2024-01-11T01:09:27;100848.34;;;-0.86;56.74
60489;BME280;46331;49.252;8.904;2024-01-11T01:10:07;100849.72;;;-0.82;56.92
60489;BME280;46331;49.252;8.904;2024-01-11T01:10:49;100844.09;;;-0.87;56.91
60489;BME280;46331;49.252;8.904;2024-01-11T01:11:31;100851.00;;;-0.57;56.95
60489;BME280;46331;49.252;8.904;2024-01-11T01:12:12;100844.78;;;-0.85;56.86
60489;BME280;46331;49.252;8.904;2024-01-11T01:12:52;100846.81;;;-0.88;56.93
60489;BME280;46331;49.252;8.904;2024-01-11T01:13:33;100842.31;;;-0.86;57.07
60489;BME280;46331;49.252;8.904;2024-01-11T01:14:13;100845.88;;;-0.87;56.96
60489;BME280;46331;49.252;8.904;2024-01-11T01:14:54;100849.44;;;-0.88;56.89
60489;BME280;46331;49.252;8.904;2024-01-11T01:15:35;100847.09;;;-0.92;56.90
60489;BME280;46331;49.252;8.904;2024-01-11T01:16:16;100848.88;;;-0.92;57.36
60489;BME280;46331;49.252;8.904;2024-01-11T01:16:58;100844.63;;;-0.93;57.18
60489;BME280;46331;49.252;8.904;2024-01-11T01:17:38;100849.69;;;-0.92;57.19
60489;BME280;46331;49.252;8.904;2024-01-11T01:18:19;100853.97;;;-0.91;57.44
60489;BME280;46331;49.252;8.904;2024-01-11T01:18:59;100855.59;;;-0.90;57.49
60489;BME280;46331;49.252;8.904;2024-01-11T01:19:40;100850.50;;;-0.91;57.43
60489;BME280;46331;49.252;8.904;2024-01-11T01:20:20;100852.16;;;-0.90;57.17
60489;BME280;46331;49.252;8.904;2024-01-11T01:21:01;100857.38;;;-0.90;56.92
60489;BME280;46331;49.252;8.904;2024-01-11T01:21:41;100851.50;;;-0.92;56.71
60489;BME280;46331;49.252;8.904;2024-01-11T01:22:22;100855.72;;;-0.91;57.42
60489;BME280;46331;49.252;8.904;2024-01-11T01:23:02;100850.38;;;-0.90;57.03
60489;BME280;46331;49.252;8.904;2024-01-11T01:23:43;100851.50;;;-0.92;57.13
60489;BME280;46331;49.252;8.904;2024-01-11T01:24:23;100860.13;;;-0.92;56.96
60489;BME280;46331;49.252;8.904;2024-01-11T01:25:04;100860.78;;;-0.90;57.01
60489;BME280;46331;49.252;8.904;2024-01-11T01:25:45;100856.69;;;-0.92;56.96
60489;BME280;46331;49.252;8.904;2024-01-11T01:26:25;100856.00;;;-0.94;57.31
60489;BME280;46331;49.252;8.904;2024-01-11T01:27:06;100862.03;;;-0.94;57.06
60489;BME280;46331;49.252;8.904;2024-01-11T01:27:49;100856.84;;;-0.94;56.92
60489;BME280;46331;49.252;8.904;2024-01-11T01:28:29;100849.97;;;-0.95;56.96
60489;BME280;46331;49.252;8.904;2024-01-11T01:29:10;100860.38;;;-0.95;57.13
60489;BME280;46331;49.252;8.904;2024-01-11T01:29:51;100850.50;;;-0.91;57.09
60489;BME280;46331;49.252;8.904;2024-01-11T01:30:34;100861.47;;;-0.97;57.72
60489;BME280;46331;49.252;8.904;2024-01-11T01:31:14;100867.13;;;-0.92;57.25
60489;BME280;46331;49.252;8.904;2024-01-11T01:31:55;100857.66;;;-0.93;57.20
60489;BME280;46331;49.252;8.904;2024-01-11T01:32:36;100861.34;;;-0.96;56.94
60489;BME280;46331;49.252;8.904;2024-01-11T01:33:16;100857.66;;;-0.93;57.02
60489;BME280;46331;49.252;8.904;2024-01-11T01:33:57;100862.03;;;-0.94;57.34
60489;BME280;46331;49.252;8.904;2024-01-11T01:34:38;100860.53;;;-0.96;57.32
60489;BME280;46331;49.252;8.904;2024-01-11T01:35:18;100863.13;;;-0.96;57.37
60489;BME280;46331;49.252;8.904;2024-01-11T01:35:59;100858.03;;;-0.98;57.46
60489;BME280;46331;49.252;8.904;2024-01-11T01:36:40;100864.50;;;-0.92;57.30
60489;BME280;46331;49.252;8.904;2024-01-11T01:37:20;100857.09;;;-0.97;57.46
60489;BME280;46331;49.252;8.904;2024-01-11T01:38:01;100858.88;;;-0.97;57.36
60489;BME280;46331;49.252;8.904;2024-01-11T01:38:42;100862.56;;;-1.00;57.53
60489;BME280;46331;49.252;8.904;2024-01-11T01:39:23;100864.06;;;-0.97;57.43
60489;BME280;46331;49.252;8.904;2024-01-11T01:40:03;100866.13;;;-0.91;57.36
60489;BME280;46331;49.252;8.904;2024-01-11T01:40:44;100861.47;;;-0.97;57.23
60489;BME280;46331;49.252;8.904;2024-01-11T01:41:25;100861.47;;;-0.97;57.59
60489;BME280;46331;49.252;8.904;2024-01-11T01:42:05;100859.56;;;-0.95;57.18
60489;BME280;46331;49.252;8.904;2024-01-11T01:42:48;100852.44;;;-0.83;57.36
60489;BME280;46331;49.252;8.904;2024-01-11T01:43:28;100853.66;;;-0.97;57.24
60489;BME280;46331;49.252;8.904;2024-01-11T01:44:09;100853.66;;;-0.97;57.25
60489;BME280;46331;49.252;8.904;2024-01-11T01:44:49;100865.72;;;-0.96;57.50
60489;BME280;46331;49.252;8.904;2024-01-11T01:45:33;100866.59;;;-0.66;57.31
60489;BME280;46331;49.252;8.904;2024-01-11T01:46:19;100861.25;;;-0.65;57.14
60489;BME280;46331;49.252;8.904;2024-01-11T01:47:02;100865.59;;;-0.85;57.17
60489;BME280;46331;49.252;8.904;2024-01-11T01:47:45;100862.88;;;-0.83;57.32
60489;BME280;46331;49.252;8.904;2024-01-11T01:48:26;100866.84;;;-0.79;57.21
60489;BME280;46331;49.252;8.904;2024-01-11T01:49:09;100867.25;;;-0.74;56.97
60489;BME280;46331;49.252;8.904;2024-01-11T01:49:51;100870.25;;;-0.98;56.85
60489;BME280;46331;49.252;8.904;2024-01-11T01:50:34;100875.47;;;-0.98;57.29
60489;BME280;46331;49.252;8.904;2024-01-11T01:51:14;100870.78;;;-1.04;56.81
60489;BME280;46331;49.252;8.904;2024-01-11T01:51:56;100876.00;;;-1.04;56.89
60489;BME280;46331;49.252;8.904;2024-01-11T01:52:38;100878.75;;;-0.86;56.83
60489;BME280;46331;49.252;8.904;2024-01-11T01:53:21;100880.13;;;-0.92;56.06
60489;BME280;46331;49.252;8.904;2024-01-11T01:54:03;100882.16;;;-1.05;56.17
60489;BME280;46331;49.252;8.904;2024-01-11T01:54:44;100877.34;;;-1.10;56.43
60489;BME280;46331;49.252;8.904;2024-01-11T01:55:25;100886.88;;;-1.20;55.57
60489;BME280;46331;49.252;8.904;2024-01-11T01:56:07;100873.47;;;-1.16;55.91
60489;BME280;46331;49.252;8.904;2024-01-11T01:56:49;100870.28;;;-1.29;56.14
60489;BME280;46331;49.252;8.904;2024-01-11T01:57:30;100878.84;;;-1.08;56.12
60489;BME280;46331;49.252;8.904;2024-01-11T01:58:13;100877.13;;;-1.28;56.07
60489;BME280;46331;49.252;8.904;2024-01-11T01:58:53;100881.50;;;-1.29;55.94
60489;BME280;46331;49.252;8.904;2024-01-11T01:59:38;100879.38;;;-1.14;55.99
60489;BME280;46331;49.252;8.904;2024-01-11T02:00:19;100875.63;;;-1.31;55.67
60489;BME280;46331;49.252;8.904;2024-01-11T02:01:00;100881.09;;;-1.34;55.72
60489;BME280;46331;49.252;8.904;2024-01-11T02:01:42;100880.50;;;-1.37;55.40
60489;BME280;46331;49.252;8.904;2024-01-11T02:02:23;100882.41;;;-1.49;55.88
60489;BME280;46331;49.252;8.904;2024-01-11T02:03:04;100889.69;;;-1.43;56.18
60489;BME280;46331;49.252;8.904;2024-01-11T02:03:45;100882.97;;;-1.36;56.65
60489;BME280;46331;49.252;8.904;2024-01-11T02:04:27;100881.81;;;-1.53;56.35
60489;BME280;46331;49.252;8.904;2024-01-11T02:05:08;100890.84;;;-1.57;56.32
60489;BME280;46331;49.252;8.904;2024-01-11T02:05:49;100889.28;;;-1.69;56.23
60489;BME280;46331;49.252;8.904;2024-01-11T02:06:32;100886.09;;;-1.42;56.31
60489;BME280;46331;49.252;8.904;2024-01-11T02:07:15;100880.44;;;-1.57;57.72
60489;BME280;46331;49.252;8.904;2024-01-11T02:07:57;100884.16;;;-1.50;57.33
60489;BME280;46331;49.252;8.904;2024-01-11T02:08:42;100885.28;;;-1.42;57.37
60489;BME280;46331;49.252;8.904;2024-01-11T02:09:24;100886.72;;;-1.59;57.33
60489;BME280;46331;49.252;8.904;2024-01-11T02:10:05;100883.34;;;-1.50;57.38
60489;BME280;46331;49.252;8.904;2024-01-11T02:10:47;100888.25;;;-1.57;57.66
60489;BME280;46331;49.252;8.904;2024-01-11T02:11:28;100884.41;;;-1.53;57.68
60489;BME280;46331;49.252;8.904;2024-01-11T02:12:09;100888.16;;;-1.46;58.00
60489;BME280;46331;49.252;8.904;2024-01-11T02:12:51;100888.41;;;-1.49;58.02
60489;BME280;46331;49.252;8.904;2024-01-11T02:13:32;100886.25;;;-1.44;57.85
60489;BME280;46331;49.252;8.904;2024-01-11T02:14:12;100885.41;;;-1.44;57.80
60489;BME280;46331;49.252;8.904;2024-01-11T02:14:53;100891.31;;;-1.42;57.47
60489;BME280;46331;49.252;8.904;2024-01-11T02:15:34;100884.94;;;-1.28;57.78
60489;BME280;46331;49.252;8.904;2024-01-11T02:16:15;100887.63;;;-1.39;57.85
60489;BME280;46331;49.252;8.904;2024-01-11T02:16:55;100877.22;;;-1.39;57.62
60489;BME280;46331;49.252;8.904;2024-01-11T02:17:36;100876.41;;;-1.40;56.95
60489;BME280;46331;49.252;8.904;2024-01-11T02:18:17;100879.19;;;-1.32;57.44
60489;BME280;46331;49.252;8.904;2024-01-11T02:18:57;100879.00;;;-1.40;57.19
60489;BME280;46331;49.252;8.904;2024-01-11T02:19:38;100879.16;;;-1.41;57.05
60489;BME280;46331;49.252;8.904;2024-01-11T02:20:19;100876.53;;;-1.41;56.94
60489;BME280;46331;49.252;8.904;2024-01-11T02:20:59;100875.28;;;-1.47;56.53
60489;BME280;46331;49.252;8.904;2024-01-11T02:21:42;100876.72;;;-1.23;56.41
60489;BME280;46331;49.252;8.904;2024-01-11T02:22:32;100868.72;;;-1.11;56.05
60489;BME280;46331;49.252;8.904;2024-01-11T02:23:17;100871.09;;;-1.29;56.07
60489;BME280;46331;49.252;8.904;2024-01-11T02:24:44;100865.59;;;-1.66;56.04
60489;BME280;46331;49.252;8.904;2024-01-11T02:25:25;100870.81;;;-1.66;56.49
60489;BME280;46331;49.252;8.904;2024-01-11T02:26:08;100862.56;;;-1.71;56.24
60489;BME280;46331;49.252;8.904;2024-01-11T02:27:02;100874.13;;;-1.23;56.03
60489;BME280;46331;49.252;8.904;2024-01-11T02:27:49;100867.69;;;-1.29;56.17
60489;BME280;46331;49.252;8.904;2024-01-11T02:28:30;100872.13;;;-1.72;56.58
60489;BME280;46331;49.252;8.904;2024-01-11T02:29:10;100875.81;;;-1.74;56.45
60489;BME280;46331;49.252;8.904;2024-01-11T02:29:51;100864.28;;;-1.82;56.54
60489;BME280;46331;49.252;8.904;2024-01-11T02:30:31;100864.41;;;-1.83;56.16
60489;BME280;46331;49.252;8.904;2024-01-11T02:31:13;100870.81;;;-1.66;56.90
60489;BME280;46331;49.252;8.904;2024-01-11T02:31:55;100873.03;;;-1.83;57.01
60489;BME280;46331;49.252;8.904;2024-01-11T02:32:36;100869.78;;;-1.96;56.60
60489;BME280;46331;49.252;8.904;2024-01-11T02:33:19;100873.63;;;-2.00;57.12
60489;BME280;46331;49.252;8.904;2024-01-11T02:34:00;100877.03;;;-2.00;57.67
60489;BME280;46331;49.252;8.904;2024-01-11T02:34:41;100870.38;;;-1.92;57.68
60489;BME280;46331;49.252;8.904;2024-01-11T02:35:21;100878.47;;;-2.07;57.63
60489;BME280;46331;49.252;8.904;2024-01-11T02:36:03;100879.88;;;-2.03;57.90
60489;BME280;46331;49.252;8.904;2024-01-11T02:36:45;100882.09;;;-1.98;57.96
60489;BME280;46331;49.252;8.904;2024-01-11T02:37:25;100876.13;;;-2.10;57.58
60489;BME280;46331;49.252;8.904;2024-01-11T02:38:06;100877.91;;;-2.10;57.79
60489;BME280;46331;49.252;8.904;2024-01-11T02:38:47;100867.03;;;-2.04;58.29
60489;BME280;46331;49.252;8.904;2024-01-11T02:39:29;100872.41;;;-2.17;57.23
60489;BME280;46331;49.252;8.904;2024-01-11T02:40:09;100868.97;;;-2.18;57.55
60489;BME280;46331;49.252;8.904;2024-01-11T02:40:51;100871.91;;;-2.11;57.58
60489;BME280;46331;49.252;8.904;2024-01-11T02:41:32;100877.41;;;-2.04;57.88
60489;BME280;46331;49.252;8.904;2024-01-11T02:42:12;100872.91;;;-2.23;57.70
60489;BME280;46331;49.252;8.904;2024-01-11T02:42:54;100876.31;;;-2.23;57.72
60489;BME280;46331;49.252;8.904;2024-01-11T02:43:34;100876.06;;;-2.20;58.08
60489;BME280;46331;49.252;8.904;2024-01-11T02:44:17;100876.31;;;-2.23;57.76
60489;BME280;46331;49.252;8.904;2024-01-11T02:44:58;100872.06;;;-2.24;57.77
60489;BME280;46331;49.252;8.904;2024-01-11T02:45:38;100870.47;;;-2.36;57.83
60489;BME280;46331;49.252;8.904;2024-01-11T02:46:19;100872.25;;;-2.37;58.00
60489;BME280;46331;49.252;8.904;2024-01-11T02:46:59;100869.78;;;-2.38;58.24
60489;BME280;46331;49.252;8.904;2024-01-11T02:47:40;100872.56;;;-2.30;58.72
60489;BME280;46331;49.252;8.904;2024-01-11T02:48:21;100868.38;;;-2.42;58.47
60489;BME280;46331;49.252;8.904;2024-01-11T02:49:02;100874.16;;;-2.39;58.55
60489;BME280;46331;49.252;8.904;2024-01-11T02:49:43;100878.06;;;-2.44;59.01
60489;BME280;46331;49.252;8.904;2024-01-11T02:50:23;100871.56;;;-2.50;59.01
60489;BME280;46331;49.252;8.904;2024-01-11T02:51:04;100879.25;;;-2.48;58.23
60489;BME280;46331;49.252;8.904;2024-01-11T02:51:44;100872.44;;;-2.49;58.80
60489;BME280;46331;49.252;8.904;2024-01-11T02:52:25;100870.75;;;-2.50;59.06
60489;BME280;46331;49.252;8.904;2024-01-11T02:53:07;100862.72;;;-2.47;59.38
60489;BME280;46331;49.252;8.904;2024-01-11T02:53:47;100867.09;;;-2.48;58.32
60489;BME280;46331;49.252;8.904;2024-01-11T02:54:28;100875.84;;;-2.49;58.55
60489;BME280;46331;49.252;8.904;2024-01-11T02:55:08;100873.00;;;-2.46;58.63
60489;BME280;46331;49.252;8.904;2024-01-11T02:55:50;100868.84;;;-2.37;59.06
60489;BME280;46331;49.252;8.904;2024-01-11T02:56:31;100872.44;;;-2.49;58.67
60489;BME280;46331;49.252;8.904;2024-01-11T02:57:12;100865.69;;;-2.52;58.25
60489;BME280;46331;49.252;8.904;2024-01-11T02:57:53;100866.97;;;-2.46;58.81
60489;BME280;46331;49.252;8.904;2024-01-11T02:58:33;100860.13;;;-2.47;58.94
60489;BME280;46331;49.252;8.904;2024-01-11T02:59:14;100876.38;;;-2.34;58.66
60489;BME280;46331;49.252;8.904;2024-01-11T02:59:54;100873.19;;;-2.38;58.52
60489;BME280;46331;49.252;8.904;2024-01-11T03:00:35;100867.50;;;-2.31;58.50
60489;BME280;46331;49.252;8.904;2024-01-11T03:01:15;100870.22;;;-2.33;58.00
60489;BME280;46331;49.252;8.904;2024-01-11T03:01:56;100870.72;;;-2.39;58.28
60489;BME280;46331;49.252;8.904;2024-01-11T03:02:37;100873.03;;;-2.25;58.76
60489;BME280;46331;49.252;8.904;2024-01-11T03:03:18;100871.75;;;-2.30;58.56
60489;BME280;46331;49.252;8.904;2024-01-11T03:03:59;100876.56;;;-2.26;58.47
60489;BME280;46331;49.252;8.904;2024-01-11T03:04:39;100877.00;;;-2.21;58.33
60489;BME280;46331;49.252;8.904;2024-01-11T03:05:20;100878.41;;;-2.17;58.18
60489;BME280;46331;49.252;8.904;2024-01-11T03:06:00;100875.31;;;-2.10;57.98
60489;BME280;46331;49.252;8.904;2024-01-11T03:06:41;100871.06;;;-2.11;58.44
60489;BME280;46331;49.252;8.904;2024-01-11T03:07:21;100873.28;;;-2.07;58.48
60489;BME280;46331;49.252;8.904;2024-01-11T03:08:02;100881.41;;;-2.00;58.54
60489;BME280;46331;49.252;8.904;2024-01-11T03:08:43;100875.97;;;-1.97;58.59
60489;BME280;46331;49.252;8.904;2024-01-11T03:09:23;100872.00;;;-1.91;58.65
60489;BME280;46331;49.252;8.904;2024-01-11T03:10:04;100875.75;;;-1.84;58.39
60489;BME280;46331;49.252;8.904;2024-01-11T03:10:45;100875.06;;;-1.86;58.98
60489;BME280;46331;49.252;8.904;2024-01-11T03:11:25;100871.50;;;-1.85;58.88
60489;BME280;46331;49.252;8.904;2024-01-11T03:12:06;100885.78;;;-1.80;58.62
60489;BME280;46331;49.252;8.904;2024-01-11T03:12:47;100878.34;;;-1.63;58.87
60489;BME280;46331;49.252;8.904;2024-01-11T03:13:29;100881.00;;;-1.74;58.74
60489;BME280;46331;49.252;8.904;2024-01-11T03:14:10;100873.09;;;-1.73;58.84
60489;BME280;46331;49.252;8.904;2024-01-11T03:14:50;100882.41;;;-1.70;58.52
60489;BME280;46331;49.252;8.904;2024-01-11T03:15:31;100874.63;;;-1.70;58.53
60489;BME280;46331;49.252;8.904;2024-01-11T03:16:11;100877.63;;;-1.65;58.71
60489;BME280;46331;49.252;8.904;2024-01-11T03:16:52;100870.81;;;-1.66;58.06
60489;BME280;46331;49.252;8.904;2024-01-11T03:17:33;100873.53;;;-1.68;58.26
60489;BME280;46331;49.252;8.904;2024-01-11T03:18:13;100876.13;;;-1.68;57.66
60489;BME280;46331;49.252;8.904;2024-01-11T03:18:54;100871.06;;;-1.69;57.98
60489;BME280;46331;49.252;8.904;2024-01-11T03:19:41;100870.38;;;-1.40;57.20
60489;BME280;46331;49.252;8.904;2024-01-11T03:20:22;100873.22;;;-1.74;56.73
60489;BME280;46331;49.252;8.904;2024-01-11T03:21:04;100873.22;;;-1.74;57.48
60489;BME280;46331;49.252;8.904;2024-01-11T03:21:45;100876.66;;;-1.74;57.40
60489;BME280;46331;49.252;8.904;2024-01-11T03:22:26;100873.72;;;-1.81;57.41
60489;BME280;46331;49.252;8.904;2024-01-11T03:23:07;100865.50;;;-1.86;57.51
60489;BME280;46331;49.252;8.904;2024-01-11T03:23:48;100868.47;;;-1.90;57.19
60489;BME280;46331;49.252;8.904;2024-01-11T03:24:28;100863.16;;;-1.89;57.51
60489;BME280;46331;49.252;8.904;2024-01-11T03:25:10;100864.28;;;-1.82;57.32
60489;BME280;46331;49.252;8.904;2024-01-11T03:25:50;100865.63;;;-1.87;57.39
60489;BME280;46331;49.252;8.904;2024-01-11T03:26:30;100868.22;;;-1.87;57.43
60489;BME280;46331;49.252;8.904;2024-01-11T03:27:11;100863.56;;;-1.84;57.58
60489;BME280;46331;49.252;8.904;2024-01-11T03:27:52;100867.97;;;-1.84;57.55
60489;BME280;46331;49.252;8.904;2024-01-11T03:28:32;100864.56;;;-1.85;57.90
60489;BME280;46331;49.252;8.904;2024-01-11T03:29:13;100870.44;;;-1.83;57.53
60489;BME280;46331;49.252;8.904;2024-01-11T03:29:53;100864.03;;;-1.78;58.03
60489;BME280;46331;49.252;8.904;2024-01-11T03:30:34;100863.06;;;-1.77;58.30
60489;BME280;46331;49.252;8.904;2024-01-11T03:31:14;100868.97;;;-1.75;57.68
60489;BME280;46331;49.252;8.904;2024-01-11T03:31:55;100858.59;;;-1.75;58.12
60489;BME280;46331;49.252;8.904;2024-01-11T03:32:38;100864.59;;;-1.75;57.87
60489;BME280;46331;49.252;8.904;2024-01-11T03:33:19;100859.00;;;-1.70;58.50
60489;BME280;46331;49.252;8.904;2024-01-11T03:34:00;100863.41;;;-1.71;57.81
60489;BME280;46331;49.252;8.904;2024-01-11T03:34:40;100862.41;;;-1.70;58.23
60489;BME280;46331;49.252;8.904;2024-01-11T03:35:21;100852.72;;;-1.68;58.18